To NAV CANADA Home Page Login to a new session Search on AWWS site Feedback and Comments Disclaimer Vers la page française équivalente Tips FAQ What's new on the site To the Forecasts and Observations / NOTAM section To "File a Flight Plan" website Publications and other links Update of the User's profile FIC Telephone Numbers My Weather Data Folder Route Weather Data Regional Weather Data Local Weather Data To the Forecasts and Observations / NOTAM section
Request Generated 06/26/2017 at 22:23:13 UTC . Weather information available at that time is displayed.

METAR/TAF

HAMILTON/ON    

METAR CYHM 262200Z 30015G25KT 15SM -TSRA BKN042CB BKN120 15/08 A2994
RMK CB6AC1 PCPN VRY LGT SLP141 DENSITY ALT 900FT=
SPECI CYHM 262153Z 27010G21KT 15SM -TSRA BKN042CB BKN055 18/11 A2993
RMK CB6SC1 SLP138 DENSITY ALT 1300FT=
SPECI CYHM 262137Z 30009KT 260V320 15SM TS SCT040CB BKN055 BKN230
18/09 A2993 RMK CB3SC3CI1 CB APCHG FM W SLP137 DENSITY ALT 1400FT=
METAR CYHM 262100Z 28009KT 15SM SCT052 BKN095 19/11 A2994 RMK CU4AC1
CB TOPS DSNT E SLP141 DENSITY ALT 1500FT=
SPECI CYHM 262023Z 21005KT 15SM SCT040CB BKN080 BKN220 18/14 A2994
RMK CB3AC2CI1 SLP142 DENSITY ALT 1300FT=
METAR CYHM 262000Z 23005KT 210V280 15SM TS SCT040CB BKN062 BKN084
17/12 A2994 RMK CB3SC2AC2 SLP143 DENSITY ALT 1200FT=

TAF AMD CYHM 262128Z 2621/2718 28009KT P6SM BKN090 TEMPO 2622/2624
VRB20G30KT 4SM +TSRA BR BKN040CB
FM270000 25008KT P6SM FEW050 SCT080
FM271200 25008KT P6SM FEW005
FM271400 27007G17KT P6SM -SHRA OVC020 PROB30 2714/2718 VRB15G25KT
2SM +TSRA BR BKN020CB
RMK NXT FCST BY 270000Z=
Your time UTC time
Weather data provided by Environment Canada and NAV CANADA